sensor_id;sensor_type;location;lat;lon;timestamp;P1;durP1;ratioP1;P2;durP2;ratioP2
65822;SDS011;52585;47.566;19.056;2023-03-20T00:02:03;21.10;;;12.80;;
65822;SDS011;52585;47.566;19.056;2023-03-20T00:04:31;20.90;;;13.20;;
65822;SDS011;52585;47.566;19.056;2023-03-20T00:06:56;17.90;;;12.70;;
65822;SDS011;52585;47.566;19.056;2023-03-20T00:09:22;20.70;;;12.40;;
65822;SDS011;52585;47.566;19.056;2023-03-20T00:11:50;16.20;;;11.90;;
65822;SDS011;52585;47.566;19.056;2023-03-20T00:14:20;21.90;;;12.20;;
65822;SDS011;52585;47.566;19.056;2023-03-20T00:16:49;22.60;;;12.10;;
65822;SDS011;52585;47.566;19.056;2023-03-20T00:19:21;16.50;;;11.50;;
65822;SDS011;52585;47.566;19.056;2023-03-20T00:21:49;16.60;;;11.00;;
65822;SDS011;52585;47.566;19.056;2023-03-20T00:24:16;16.70;;;10.90;;
65822;SDS011;52585;47.566;19.056;2023-03-20T00:26:50;17.60;;;11.10;;
65822;SDS011;52585;47.566;19.056;2023-03-20T00:29:28;17.90;;;11.10;;
65822;SDS011;52585;47.566;19.056;2023-03-20T00:31:55;14.90;;;10.10;;
65822;SDS011;52585;47.566;19.056;2023-03-20T00:34:26;18.90;;;10.30;;
65822;SDS011;52585;47.566;19.056;2023-03-20T00:36:54;14.30;;;10.40;;
65822;SDS011;52585;47.566;19.056;2023-03-20T00:39:20;18.80;;;10.40;;
65822;SDS011;52585;47.566;19.056;2023-03-20T00:41:53;16.80;;;9.90;;
65822;SDS011;52585;47.566;19.056;2023-03-20T00:44:36;18.60;;;9.30;;
65822;SDS011;52585;47.566;19.056;2023-03-20T00:47:16;12.80;;;9.20;;
65822;SDS011;52585;47.566;19.056;2023-03-20T00:49:46;15.30;;;10.10;;
65822;SDS011;52585;47.566;19.056;2023-03-20T00:52:16;13.20;;;9.70;;
65822;SDS011;52585;47.566;19.056;2023-03-20T00:54:44;12.10;;;9.00;;
65822;SDS011;52585;47.566;19.056;2023-03-20T00:57:28;13.30;;;9.10;;
65822;SDS011;52585;47.566;19.056;2023-03-20T01:00:24;11.70;;;8.70;;
65822;SDS011;52585;47.566;19.056;2023-03-20T01:02:57;12.70;;;8.80;;
65822;SDS011;52585;47.566;19.056;2023-03-20T01:05:25;13.70;;;8.90;;
65822;SDS011;52585;47.566;19.056;2023-03-20T01:07:52;17.60;;;9.40;;
65822;SDS011;52585;47.566;19.056;2023-03-20T01:10:17;16.30;;;9.20;;
65822;SDS011;52585;47.566;19.056;2023-03-20T01:12:45;13.50;;;9.50;;
65822;SDS011;52585;47.566;19.056;2023-03-20T01:15:24;17.60;;;9.60;;
65822;SDS011;52585;47.566;19.056;2023-03-20T01:17:51;13.30;;;8.40;;
65822;SDS011;52585;47.566;19.056;2023-03-20T01:20:22;15.90;;;9.80;;
65822;SDS011;52585;47.566;19.056;2023-03-20T01:22:50;13.90;;;9.00;;
65822;SDS011;52585;47.566;19.056;2023-03-20T01:25:16;14.90;;;9.40;;
65822;SDS011;52585;47.566;19.056;2023-03-20T01:27:44;15.50;;;9.20;;
65822;SDS011;52585;47.566;19.056;2023-03-20T01:30:32;13.50;;;9.00;;
65822;SDS011;52585;47.566;19.056;2023-03-20T01:32:59;13.70;;;9.00;;
65822;SDS011;52585;47.566;19.056;2023-03-20T01:35:26;14.60;;;9.20;;
65822;SDS011;52585;47.566;19.056;2023-03-20T01:37:54;17.20;;;9.20;;
65822;SDS011;52585;47.566;19.056;2023-03-20T01:40:57;13.70;;;9.20;;
65822;SDS011;52585;47.566;19.056;2023-03-20T01:43:28;14.60;;;8.80;;
65822;SDS011;52585;47.566;19.056;2023-03-20T01:46:18;11.80;;;8.40;;
65822;SDS011;52585;47.566;19.056;2023-03-20T01:51:26;11.90;;;9.00;;
65822;SDS011;52585;47.566;19.056;2023-03-20T01:54:00;12.50;;;8.60;;
65822;SDS011;52585;47.566;19.056;2023-03-20T01:56:37;14.90;;;9.70;;
65822;SDS011;52585;47.566;19.056;2023-03-20T01:59:12;15.20;;;9.20;;
65822;SDS011;52585;47.566;19.056;2023-03-20T02:01:46;16.20;;;9.60;;
65822;SDS011;52585;47.566;19.056;2023-03-20T02:04:13;13.50;;;9.50;;
65822;SDS011;52585;47.566;19.056;2023-03-20T02:06:44;13.90;;;9.60;;
65822;SDS011;52585;47.566;19.056;2023-03-20T02:09:11;12.30;;;8.50;;
65822;SDS011;52585;47.566;19.056;2023-03-20T02:11:41;13.30;;;9.70;;
65822;SDS011;52585;47.566;19.056;2023-03-20T02:14:28;13.50;;;9.40;;
65822;SDS011;52585;47.566;19.056;2023-03-20T02:16:55;13.80;;;8.50;;
65822;SDS011;52585;47.566;19.056;2023-03-20T02:28:44;12.80;;;8.60;;
65822;SDS011;52585;47.566;19.056;2023-03-20T02:31:40;11.50;;;7.90;;
65822;SDS011;52585;47.566;19.056;2023-03-20T02:45:47;13.10;;;8.40;;
65822;SDS011;52585;47.566;19.056;2023-03-20T02:51:40;10.50;;;7.50;;
65822;SDS011;52585;47.566;19.056;2023-03-20T02:57:06;9.10;;;7.10;;
65822;SDS011;52585;47.566;19.056;2023-03-20T02:59:58;11.20;;;7.80;;
65822;SDS011;52585;47.566;19.056;2023-03-20T03:02:36;10.90;;;7.40;;
65822;SDS011;52585;47.566;19.056;2023-03-20T03:05:11;10.40;;;7.40;;
65822;SDS011;52585;47.566;19.056;2023-03-20T03:07:43;12.50;;;7.40;;
65822;SDS011;52585;47.566;19.056;2023-03-20T03:12:57;15.10;;;8.20;;
65822;SDS011;52585;47.566;19.056;2023-03-20T03:15:30;11.80;;;8.00;;
65822;SDS011;52585;47.566;19.056;2023-03-20T03:20:30;8.80;;;6.70;;
65822;SDS011;52585;47.566;19.056;2023-03-20T03:22:58;11.40;;;7.00;;
65822;SDS011;52585;47.566;19.056;2023-03-20T03:25:29;9.80;;;7.50;;
65822;SDS011;52585;47.566;19.056;2023-03-20T03:28:20;9.80;;;6.90;;
65822;SDS011;52585;47.566;19.056;2023-03-20T03:30:53;10.10;;;7.00;;
65822;SDS011;52585;47.566;19.056;2023-03-20T03:33:23;10.00;;;7.40;;
65822;SDS011;52585;47.566;19.056;2023-03-20T03:39:37;8.60;;;7.20;;
65822;SDS011;52585;47.566;19.056;2023-03-20T03:42:32;8.00;;;6.80;;
65822;SDS011;52585;47.566;19.056;2023-03-20T03:45:14;9.60;;;7.20;;
65822;SDS011;52585;47.566;19.056;2023-03-20T03:47:53;12.80;;;7.20;;
65822;SDS011;52585;47.566;19.056;2023-03-20T03:50:50;10.80;;;6.80;;
65822;SDS011;52585;47.566;19.056;2023-03-20T03:53:25;10.30;;;7.40;;
65822;SDS011;52585;47.566;19.056;2023-03-20T03:56:02;10.00;;;7.80;;
65822;SDS011;52585;47.566;19.056;2023-03-20T03:58:41;11.90;;;8.20;;
65822;SDS011;52585;47.566;19.056;2023-03-20T04:01:11;12.10;;;8.20;;
65822;SDS011;52585;47.566;19.056;2023-03-20T04:03:44;11.60;;;7.90;;
65822;SDS011;52585;47.566;19.056;2023-03-20T04:06:15;8.80;;;7.00;;
65822;SDS011;52585;47.566;19.056;2023-03-20T04:08:42;10.00;;;7.10;;
65822;SDS011;52585;47.566;19.056;2023-03-20T04:11:14;10.80;;;7.70;;
65822;SDS011;52585;47.566;19.056;2023-03-20T04:13:42;11.60;;;7.70;;
65822;SDS011;52585;47.566;19.056;2023-03-20T04:16:12;11.10;;;7.60;;
65822;SDS011;52585;47.566;19.056;2023-03-20T04:18:39;10.00;;;7.40;;
65822;SDS011;52585;47.566;19.056;2023-03-20T04:21:06;10.80;;;7.60;;
65822;SDS011;52585;47.566;19.056;2023-03-20T04:23:32;10.50;;;7.50;;
65822;SDS011;52585;47.566;19.056;2023-03-20T04:25:58;14.10;;;7.50;;
65822;SDS011;52585;47.566;19.056;2023-03-20T04:28:24;10.90;;;7.60;;
65822;SDS011;52585;47.566;19.056;2023-03-20T04:30:54;13.40;;;7.20;;
65822;SDS011;52585;47.566;19.056;2023-03-20T04:33:22;13.60;;;7.50;;
65822;SDS011;52585;47.566;19.056;2023-03-20T04:35:50;11.30;;;7.80;;
65822;SDS011;52585;47.566;19.056;2023-03-20T04:38:17;11.40;;;7.30;;
65822;SDS011;52585;47.566;19.056;2023-03-20T04:40:44;10.50;;;7.10;;
65822;SDS011;52585;47.566;19.056;2023-03-20T04:43:11;11.50;;;8.20;;
65822;SDS011;52585;47.566;19.056;2023-03-20T04:45:38;11.50;;;8.10;;
65822;SDS011;52585;47.566;19.056;2023-03-20T04:48:04;10.50;;;7.70;;
65822;SDS011;52585;47.566;19.056;2023-03-20T04:50:30;12.30;;;8.00;;
65822;SDS011;52585;47.566;19.056;2023-03-20T04:52:56;9.40;;;7.50;;
65822;SDS011;52585;47.566;19.056;2023-03-20T04:55:22;10.90;;;7.80;;
65822;SDS011;52585;47.566;19.056;2023-03-20T04:57:49;10.70;;;7.20;;
65822;SDS011;52585;47.566;19.056;2023-03-20T05:00:16;12.40;;;7.40;;
65822;SDS011;52585;47.566;19.056;2023-03-20T05:02:43;14.60;;;7.30;;
65822;SDS011;52585;47.566;19.056;2023-03-20T05:05:08;11.20;;;7.10;;
65822;SDS011;52585;47.566;19.056;2023-03-20T05:07:34;11.20;;;7.50;;
65822;SDS011;52585;47.566;19.056;2023-03-20T05:10:01;11.10;;;7.80;;
65822;SDS011;52585;47.566;19.056;2023-03-20T05:12:28;18.30;;;8.50;;
65822;SDS011;52585;47.566;19.056;2023-03-20T05:14:54;15.90;;;8.40;;
65822;SDS011;52585;47.566;19.056;2023-03-20T05:17:23;12.50;;;8.70;;
65822;SDS011;52585;47.566;19.056;2023-03-20T05:19:49;16.40;;;8.10;;
65822;SDS011;52585;47.566;19.056;2023-03-20T05:22:16;14.80;;;8.30;;
65822;SDS011;52585;47.566;19.056;2023-03-20T05:24:42;12.00;;;8.30;;
65822;SDS011;52585;47.566;19.056;2023-03-20T05:27:09;16.00;;;9.10;;
65822;SDS011;52585;47.566;19.056;2023-03-20T05:29:36;14.60;;;8.10;;
65822;SDS011;52585;47.566;19.056;2023-03-20T05:32:02;15.70;;;8.70;;
65822;SDS011;52585;47.566;19.056;2023-03-20T05:34:27;17.00;;;8.20;;
65822;SDS011;52585;47.566;19.056;2023-03-20T05:36:53;11.60;;;7.70;;
65822;SDS011;52585;47.566;19.056;2023-03-20T05:39:19;16.60;;;8.90;;
65822;SDS011;52585;47.566;19.056;2023-03-20T05:41:44;15.90;;;8.50;;
65822;SDS011;52585;47.566;19.056;2023-03-20T05:44:10;13.60;;;8.20;;
65822;SDS011;52585;47.566;19.056;2023-03-20T05:46:37;11.10;;;7.90;;
65822;SDS011;52585;47.566;19.056;2023-03-20T05:49:02;12.70;;;7.30;;
65822;SDS011;52585;47.566;19.056;2023-03-20T05:51:28;11.60;;;7.90;;
65822;SDS011;52585;47.566;19.056;2023-03-20T05:53:54;11.80;;;7.70;;
65822;SDS011;52585;47.566;19.056;2023-03-20T05:56:20;9.90;;;7.80;;
65822;SDS011;52585;47.566;19.056;2023-03-20T05:58:45;12.50;;;7.40;;
65822;SDS011;52585;47.566;19.056;2023-03-20T06:01:11;12.40;;;8.50;;
65822;SDS011;52585;47.566;19.056;2023-03-20T06:03:41;13.70;;;8.00;;
65822;SDS011;52585;47.566;19.056;2023-03-20T06:06:07;13.00;;;8.50;;
65822;SDS011;52585;47.566;19.056;2023-03-20T06:08:32;13.80;;;8.60;;
65822;SDS011;52585;47.566;19.056;2023-03-20T06:11:01;12.90;;;8.30;;
65822;SDS011;52585;47.566;19.056;2023-03-20T06:13:28;17.90;;;8.70;;
65822;SDS011;52585;47.566;19.056;2023-03-20T06:15:53;16.00;;;7.60;;
65822;SDS011;52585;47.566;19.056;2023-03-20T06:18:19;13.50;;;8.10;;
65822;SDS011;52585;47.566;19.056;2023-03-20T06:20:45;10.10;;;7.90;;
65822;SDS011;52585;47.566;19.056;2023-03-20T06:23:10;12.50;;;7.60;;
65822;SDS011;52585;47.566;19.056;2023-03-20T06:25:36;15.30;;;8.30;;
65822;SDS011;52585;47.566;19.056;2023-03-20T06:28:04;16.30;;;8.20;;
65822;SDS011;52585;47.566;19.056;2023-03-20T06:30:29;13.50;;;7.80;;
65822;SDS011;52585;47.566;19.056;2023-03-20T06:32:55;11.00;;;7.90;;
65822;SDS011;52585;47.566;19.056;2023-03-20T06:35:20;11.70;;;7.80;;
65822;SDS011;52585;47.566;19.056;2023-03-20T06:37:46;15.20;;;7.60;;
65822;SDS011;52585;47.566;19.056;2023-03-20T06:40:11;11.70;;;7.60;;
65822;SDS011;52585;47.566;19.056;2023-03-20T06:42:37;14.80;;;8.40;;
65822;SDS011;52585;47.566;19.056;2023-03-20T06:45:03;14.70;;;7.90;;
65822;SDS011;52585;47.566;19.056;2023-03-20T06:47:29;11.70;;;8.80;;
65822;SDS011;52585;47.566;19.056;2023-03-20T06:49:55;10.90;;;7.70;;
65822;SDS011;52585;47.566;19.056;2023-03-20T06:52:20;10.70;;;7.50;;
65822;SDS011;52585;47.566;19.056;2023-03-20T06:54:47;11.30;;;7.10;;
65822;SDS011;52585;47.566;19.056;2023-03-20T06:57:13;12.00;;;7.10;;
65822;SDS011;52585;47.566;19.056;2023-03-20T06:59:39;10.40;;;6.50;;
65822;SDS011;52585;47.566;19.056;2023-03-20T07:02:05;12.40;;;6.70;;
65822;SDS011;52585;47.566;19.056;2023-03-20T07:04:31;9.10;;;6.80;;
65822;SDS011;52585;47.566;19.056;2023-03-20T07:06:57;9.40;;;7.00;;
65822;SDS011;52585;47.566;19.056;2023-03-20T07:09:23;10.00;;;6.90;;
65822;SDS011;52585;47.566;19.056;2023-03-20T07:11:49;10.80;;;7.10;;
65822;SDS011;52585;47.566;19.056;2023-03-20T07:14:14;10.10;;;6.70;;
65822;SDS011;52585;47.566;19.056;2023-03-20T07:16:40;9.10;;;6.90;;
65822;SDS011;52585;47.566;19.056;2023-03-20T07:19:06;9.10;;;7.20;;
65822;SDS011;52585;47.566;19.056;2023-03-20T07:21:33;14.30;;;7.20;;
65822;SDS011;52585;47.566;19.056;2023-03-20T07:23:59;10.30;;;6.90;;
65822;SDS011;52585;47.566;19.056;2023-03-20T07:26:25;10.20;;;6.60;;
65822;SDS011;52585;47.566;19.056;2023-03-20T07:28:51;12.20;;;6.40;;
65822;SDS011;52585;47.566;19.056;2023-03-20T07:31:27;8.90;;;5.90;;
65822;SDS011;52585;47.566;19.056;2023-03-20T07:33:54;7.10;;;5.50;;
65822;SDS011;52585;47.566;19.056;2023-03-20T07:36:20;9.50;;;6.50;;
65822;SDS011;52585;47.566;19.056;2023-03-20T07:38:46;13.50;;;6.30;;
65822;SDS011;52585;47.566;19.056;2023-03-20T07:41:12;7.30;;;5.50;;
65822;SDS011;52585;47.566;19.056;2023-03-20T07:43:37;7.40;;;6.00;;
65822;SDS011;52585;47.566;19.056;2023-03-20T07:46:05;7.50;;;6.60;;
65822;SDS011;52585;47.566;19.056;2023-03-20T07:48:32;9.90;;;6.50;;
65822;SDS011;52585;47.566;19.056;2023-03-20T07:50:58;11.00;;;6.50;;
65822;SDS011;52585;47.566;19.056;2023-03-20T07:53:24;7.50;;;6.10;;
65822;SDS011;52585;47.566;19.056;2023-03-20T07:55:49;10.80;;;6.20;;
65822;SDS011;52585;47.566;19.056;2023-03-20T07:58:15;8.50;;;6.60;;
65822;SDS011;52585;47.566;19.056;2023-03-20T08:00:40;10.70;;;6.20;;
65822;SDS011;52585;47.566;19.056;2023-03-20T08:03:06;9.20;;;6.50;;
65822;SDS011;52585;47.566;19.056;2023-03-20T08:05:32;6.70;;;6.00;;
65822;SDS011;52585;47.566;19.056;2023-03-20T08:07:58;8.40;;;6.10;;
65822;SDS011;52585;47.566;19.056;2023-03-20T08:10:23;10.60;;;6.20;;
65822;SDS011;52585;47.566;19.056;2023-03-20T08:12:49;11.40;;;6.50;;
65822;SDS011;52585;47.566;19.056;2023-03-20T08:15:14;11.90;;;6.80;;
65822;SDS011;52585;47.566;19.056;2023-03-20T08:17:44;7.60;;;5.80;;
65822;SDS011;52585;47.566;19.056;2023-03-20T08:20:12;9.80;;;5.60;;
65822;SDS011;52585;47.566;19.056;2023-03-20T08:22:39;8.10;;;6.50;;
65822;SDS011;52585;47.566;19.056;2023-03-20T08:25:06;10.00;;;6.20;;
65822;SDS011;52585;47.566;19.056;2023-03-20T08:27:33;9.70;;;5.90;;
65822;SDS011;52585;47.566;19.056;2023-03-20T08:29:59;9.00;;;5.90;;
65822;SDS011;52585;47.566;19.056;2023-03-20T08:32:25;8.10;;;5.90;;
65822;SDS011;52585;47.566;19.056;2023-03-20T08:34:51;10.10;;;6.20;;
65822;SDS011;52585;47.566;19.056;2023-03-20T08:37:20;9.80;;;6.30;;
65822;SDS011;52585;47.566;19.056;2023-03-20T08:39:46;9.00;;;6.20;;
65822;SDS011;52585;47.566;19.056;2023-03-20T08:42:12;9.20;;;6.40;;
65822;SDS011;52585;47.566;19.056;2023-03-20T08:44:38;8.50;;;6.20;;
65822;SDS011;52585;47.566;19.056;2023-03-20T08:47:04;12.00;;;6.70;;
65822;SDS011;52585;47.566;19.056;2023-03-20T08:49:33;9.80;;;6.30;;
65822;SDS011;52585;47.566;19.056;2023-03-20T08:51:59;8.10;;;5.60;;
65822;SDS011;52585;47.566;19.056;2023-03-20T08:54:25;7.40;;;5.30;;
65822;SDS011;52585;47.566;19.056;2023-03-20T08:56:51;8.20;;;5.00;;
65822;SDS011;52585;47.566;19.056;2023-03-20T08:59:17;5.50;;;4.20;;
65822;SDS011;52585;47.566;19.056;2023-03-20T09:01:44;4.20;;;3.80;;
65822;SDS011;52585;47.566;19.056;2023-03-20T09:04:12;7.10;;;4.30;;
65822;SDS011;52585;47.566;19.056;2023-03-20T09:06:38;7.00;;;4.20;;
65822;SDS011;52585;47.566;19.056;2023-03-20T09:09:04;9.00;;;4.20;;
65822;SDS011;52585;47.566;19.056;2023-03-20T09:11:31;5.20;;;4.20;;
65822;SDS011;52585;47.566;19.056;2023-03-20T09:13:58;5.50;;;4.20;;
65822;SDS011;52585;47.566;19.056;2023-03-20T09:16:25;4.60;;;4.00;;
65822;SDS011;52585;47.566;19.056;2023-03-20T09:18:51;6.10;;;4.00;;
65822;SDS011;52585;47.566;19.056;2023-03-20T09:21:17;6.40;;;4.10;;
65822;SDS011;52585;47.566;19.056;2023-03-20T09:23:43;6.10;;;4.50;;
65822;SDS011;52585;47.566;19.056;2023-03-20T09:26:08;4.00;;;3.60;;
65822;SDS011;52585;47.566;19.056;2023-03-20T09:28:34;5.20;;;3.80;;
65822;SDS011;52585;47.566;19.056;2023-03-20T09:31:00;5.60;;;4.00;;
65822;SDS011;52585;47.566;19.056;2023-03-20T09:33:25;6.10;;;4.00;;
65822;SDS011;52585;47.566;19.056;2023-03-20T09:35:52;6.20;;;4.20;;
65822;SDS011;52585;47.566;19.056;2023-03-20T09:38:18;7.30;;;4.50;;
65822;SDS011;52585;47.566;19.056;2023-03-20T09:40:59;7.70;;;5.00;;
65822;SDS011;52585;47.566;19.056;2023-03-20T09:52:55;5.60;;;4.00;;
65822;SDS011;52585;47.566;19.056;2023-03-20T09:55:40;5.10;;;4.30;;
65822;SDS011;52585;47.566;19.056;2023-03-20T09:58:15;6.10;;;4.50;;
65822;SDS011;52585;47.566;19.056;2023-03-20T10:00:46;5.40;;;4.50;;
65822;SDS011;52585;47.566;19.056;2023-03-20T10:06:02;7.70;;;5.30;;
65822;SDS011;52585;47.566;19.056;2023-03-20T10:08:36;7.90;;;4.30;;
65822;SDS011;52585;47.566;19.056;2023-03-20T10:16:50;9.50;;;4.60;;
65822;SDS011;52585;47.566;19.056;2023-03-20T10:19:50;5.20;;;4.40;;
65822;SDS011;52585;47.566;19.056;2023-03-20T10:25:13;5.90;;;4.60;;
65822;SDS011;52585;47.566;19.056;2023-03-20T10:28:11;5.60;;;4.40;;
65822;SDS011;52585;47.566;19.056;2023-03-20T10:36:53;6.90;;;4.50;;
65822;SDS011;52585;47.566;19.056;2023-03-20T10:42:28;9.90;;;4.40;;
65822;SDS011;52585;47.566;19.056;2023-03-20T10:48:09;4.70;;;3.90;;
65822;SDS011;52585;47.566;19.056;2023-03-20T10:51:00;5.80;;;3.80;;
65822;SDS011;52585;47.566;19.056;2023-03-20T10:53:36;6.20;;;4.50;;
65822;SDS011;52585;47.566;19.056;2023-03-20T10:56:15;5.70;;;4.10;;
65822;SDS011;52585;47.566;19.056;2023-03-20T10:59:00;8.00;;;4.50;;
65822;SDS011;52585;47.566;19.056;2023-03-20T11:01:31;7.40;;;4.70;;
65822;SDS011;52585;47.566;19.056;2023-03-20T11:03:56;6.40;;;4.60;;
65822;SDS011;52585;47.566;19.056;2023-03-20T11:06:28;6.90;;;5.20;;
65822;SDS011;52585;47.566;19.056;2023-03-20T11:09:18;8.50;;;4.90;;
65822;SDS011;52585;47.566;19.056;2023-03-20T11:11:46;9.30;;;4.80;;
65822;SDS011;52585;47.566;19.056;2023-03-20T11:14:20;9.90;;;4.60;;
65822;SDS011;52585;47.566;19.056;2023-03-20T11:16:50;85.10;;;11.30;;
65822;SDS011;52585;47.566;19.056;2023-03-20T11:19:20;24.80;;;5.50;;
65822;SDS011;52585;47.566;19.056;2023-03-20T11:21:55;15.20;;;5.20;;
65822;SDS011;52585;47.566;19.056;2023-03-20T11:24:54;8.30;;;4.80;;
65822;SDS011;52585;47.566;19.056;2023-03-20T11:27:27;6.50;;;4.20;;
65822;SDS011;52585;47.566;19.056;2023-03-20T11:30:03;6.90;;;4.70;;
65822;SDS011;52585;47.566;19.056;2023-03-20T11:32:38;5.90;;;4.50;;
65822;SDS011;52585;47.566;19.056;2023-03-20T11:35:21;6.10;;;4.50;;
65822;SDS011;52585;47.566;19.056;2023-03-20T11:37:54;5.90;;;4.50;;
65822;SDS011;52585;47.566;19.056;2023-03-20T11:40:34;6.80;;;4.80;;
65822;SDS011;52585;47.566;19.056;2023-03-20T11:45:32;5.20;;;4.60;;
65822;SDS011;52585;47.566;19.056;2023-03-20T11:48:01;11.70;;;4.90;;
65822;SDS011;52585;47.566;19.056;2023-03-20T11:50:32;7.40;;;4.80;;
65822;SDS011;52585;47.566;19.056;2023-03-20T11:53:25;10.30;;;5.80;;
65822;SDS011;52585;47.566;19.056;2023-03-20T12:01:40;10.90;;;6.10;;
65822;SDS011;52585;47.566;19.056;2023-03-20T12:06:48;8.70;;;5.70;;
65822;SDS011;52585;47.566;19.056;2023-03-20T12:11:57;8.50;;;5.70;;
65822;SDS011;52585;47.566;19.056;2023-03-20T12:14:34;8.20;;;5.70;;
65822;SDS011;52585;47.566;19.056;2023-03-20T12:31:27;8.60;;;5.70;;
65822;SDS011;52585;47.566;19.056;2023-03-20T12:33:58;9.30;;;7.10;;
65822;SDS011;52585;47.566;19.056;2023-03-20T12:36:39;10.20;;;6.00;;
65822;SDS011;52585;47.566;19.056;2023-03-20T12:39:16;7.70;;;5.60;;
65822;SDS011;52585;47.566;19.056;2023-03-20T12:44:55;7.90;;;5.40;;
65822;SDS011;52585;47.566;19.056;2023-03-20T12:55:54;11.60;;;6.50;;
65822;SDS011;52585;47.566;19.056;2023-03-20T13:01:45;16.70;;;7.80;;
65822;SDS011;52585;47.566;19.056;2023-03-20T13:15:27;7.10;;;5.60;;
65822;SDS011;52585;47.566;19.056;2023-03-20T13:20:49;8.90;;;6.20;;
65822;SDS011;52585;47.566;19.056;2023-03-20T13:23:29;12.80;;;5.90;;
65822;SDS011;52585;47.566;19.056;2023-03-20T13:26:25;9.60;;;6.30;;
65822;SDS011;52585;47.566;19.056;2023-03-20T13:29:09;15.10;;;6.70;;
65822;SDS011;52585;47.566;19.056;2023-03-20T13:37:48;9.90;;;6.80;;
65822;SDS011;52585;47.566;19.056;2023-03-20T13:40:26;11.60;;;6.30;;
65822;SDS011;52585;47.566;19.056;2023-03-20T13:45:42;9.60;;;6.90;;
65822;SDS011;52585;47.566;19.056;2023-03-20T13:48:25;8.80;;;6.40;;
65822;SDS011;52585;47.566;19.056;2023-03-20T13:57:03;15.00;;;6.30;;
65822;SDS011;52585;47.566;19.056;2023-03-20T14:05:50;11.20;;;6.30;;
65822;SDS011;52585;47.566;19.056;2023-03-20T14:08:30;9.20;;;6.00;;
65822;SDS011;52585;47.566;19.056;2023-03-20T14:11:14;8.50;;;5.90;;
65822;SDS011;52585;47.566;19.056;2023-03-20T14:17:00;6.90;;;5.30;;
65822;SDS011;52585;47.566;19.056;2023-03-20T14:19:27;9.20;;;6.40;;
65822;SDS011;52585;47.566;19.056;2023-03-20T14:21:55;8.30;;;6.60;;
65822;SDS011;52585;47.566;19.056;2023-03-20T14:24:22;9.30;;;6.70;;
65822;SDS011;52585;47.566;19.056;2023-03-20T14:26:55;8.10;;;5.90;;
65822;SDS011;52585;47.566;19.056;2023-03-20T14:32:21;9.30;;;6.60;;
65822;SDS011;52585;47.566;19.056;2023-03-20T14:35:18;8.30;;;6.50;;
65822;SDS011;52585;47.566;19.056;2023-03-20T14:41:05;7.40;;;5.90;;
65822;SDS011;52585;47.566;19.056;2023-03-20T14:53:02;8.70;;;5.90;;
65822;SDS011;52585;47.566;19.056;2023-03-20T14:58:31;8.90;;;5.90;;
65822;SDS011;52585;47.566;19.056;2023-03-20T15:01:02;7.50;;;5.40;;
65822;SDS011;52585;47.566;19.056;2023-03-20T15:03:30;6.90;;;5.70;;
65822;SDS011;52585;47.566;19.056;2023-03-20T15:05:59;10.00;;;6.50;;
65822;SDS011;52585;47.566;19.056;2023-03-20T15:08:31;9.40;;;5.50;;
65822;SDS011;52585;47.566;19.056;2023-03-20T15:11:08;11.60;;;5.30;;
65822;SDS011;52585;47.566;19.056;2023-03-20T15:13:36;8.30;;;5.60;;
65822;SDS011;52585;47.566;19.056;2023-03-20T15:16:06;7.00;;;5.40;;
65822;SDS011;52585;47.566;19.056;2023-03-20T15:18:46;6.30;;;4.80;;
65822;SDS011;52585;47.566;19.056;2023-03-20T15:23:46;5.90;;;5.00;;
65822;SDS011;52585;47.566;19.056;2023-03-20T15:26:14;9.60;;;4.60;;
65822;SDS011;52585;47.566;19.056;2023-03-20T15:28:44;5.90;;;4.90;;
65822;SDS011;52585;47.566;19.056;2023-03-20T15:31:29;5.40;;;4.80;;
65822;SDS011;52585;47.566;19.056;2023-03-20T15:33:59;9.30;;;4.80;;
65822;SDS011;52585;47.566;19.056;2023-03-20T15:36:32;9.50;;;4.60;;
65822;SDS011;52585;47.566;19.056;2023-03-20T15:39:15;5.80;;;4.70;;
65822;SDS011;52585;47.566;19.056;2023-03-20T15:41:54;5.80;;;4.20;;
65822;SDS011;52585;47.566;19.056;2023-03-20T15:44:26;6.60;;;4.00;;
65822;SDS011;52585;47.566;19.056;2023-03-20T15:47:03;5.70;;;4.30;;
65822;SDS011;52585;47.566;19.056;2023-03-20T15:49:38;4.80;;;4.20;;
65822;SDS011;52585;47.566;19.056;2023-03-20T15:52:23;4.10;;;3.70;;
65822;SDS011;52585;47.566;19.056;2023-03-20T15:54:51;8.90;;;4.40;;
65822;SDS011;52585;47.566;19.056;2023-03-20T15:57:31;4.10;;;3.70;;
65822;SDS011;52585;47.566;19.056;2023-03-20T15:59:59;5.10;;;4.60;;
65822;SDS011;52585;47.566;19.056;2023-03-20T16:02:26;4.20;;;3.80;;
65822;SDS011;52585;47.566;19.056;2023-03-20T16:04:54;5.30;;;4.10;;
65822;SDS011;52585;47.566;19.056;2023-03-20T16:07:26;8.10;;;4.00;;
65822;SDS011;52585;47.566;19.056;2023-03-20T16:09:57;6.70;;;3.60;;
65822;SDS011;52585;47.566;19.056;2023-03-20T16:12:24;4.40;;;4.00;;
65822;SDS011;52585;47.566;19.056;2023-03-20T16:14:52;8.40;;;4.90;;
65822;SDS011;52585;47.566;19.056;2023-03-20T16:17:20;4.60;;;4.10;;
65822;SDS011;52585;47.566;19.056;2023-03-20T16:19:49;4.50;;;3.80;;
65822;SDS011;52585;47.566;19.056;2023-03-20T16:24:57;8.20;;;4.50;;
65822;SDS011;52585;47.566;19.056;2023-03-20T16:27:36;5.30;;;4.20;;
65822;SDS011;52585;47.566;19.056;2023-03-20T16:30:10;9.40;;;4.50;;
65822;SDS011;52585;47.566;19.056;2023-03-20T16:32:42;6.00;;;4.50;;
65822;SDS011;52585;47.566;19.056;2023-03-20T16:35:41;6.90;;;4.40;;
65822;SDS011;52585;47.566;19.056;2023-03-20T16:38:27;4.80;;;4.30;;
65822;SDS011;52585;47.566;19.056;2023-03-20T16:41:12;7.00;;;4.70;;
65822;SDS011;52585;47.566;19.056;2023-03-20T16:43:44;6.80;;;5.00;;
65822;SDS011;52585;47.566;19.056;2023-03-20T16:46:18;6.30;;;4.70;;
65822;SDS011;52585;47.566;19.056;2023-03-20T16:48:51;6.70;;;4.40;;
65822;SDS011;52585;47.566;19.056;2023-03-20T16:51:37;5.90;;;4.30;;
65822;SDS011;52585;47.566;19.056;2023-03-20T16:54:03;12.30;;;5.50;;
65822;SDS011;52585;47.566;19.056;2023-03-20T16:56:36;4.90;;;3.90;;
65822;SDS011;52585;47.566;19.056;2023-03-20T16:59:16;5.60;;;4.30;;
65822;SDS011;52585;47.566;19.056;2023-03-20T17:01:45;6.30;;;3.90;;
65822;SDS011;52585;47.566;19.056;2023-03-20T17:04:32;5.70;;;4.80;;
65822;SDS011;52585;47.566;19.056;2023-03-20T17:07:06;11.60;;;4.40;;
65822;SDS011;52585;47.566;19.056;2023-03-20T17:09:53;6.60;;;4.40;;
65822;SDS011;52585;47.566;19.056;2023-03-20T17:12:26;4.80;;;4.30;;
65822;SDS011;52585;47.566;19.056;2023-03-20T17:14:56;10.10;;;4.60;;
65822;SDS011;52585;47.566;19.056;2023-03-20T17:17:22;6.50;;;4.70;;
65822;SDS011;52585;47.566;19.056;2023-03-20T17:19:50;5.40;;;4.50;;
65822;SDS011;52585;47.566;19.056;2023-03-20T17:22:25;4.70;;;4.20;;
65822;SDS011;52585;47.566;19.056;2023-03-20T17:24:55;4.40;;;4.00;;
65822;SDS011;52585;47.566;19.056;2023-03-20T17:27:22;7.10;;;4.50;;
65822;SDS011;52585;47.566;19.056;2023-03-20T17:29:48;9.20;;;4.80;;
65822;SDS011;52585;47.566;19.056;2023-03-20T17:32:17;8.90;;;4.90;;
65822;SDS011;52585;47.566;19.056;2023-03-20T17:34:45;6.60;;;4.70;;
65822;SDS011;52585;47.566;19.056;2023-03-20T17:37:25;6.90;;;4.80;;
65822;SDS011;52585;47.566;19.056;2023-03-20T17:39:52;8.30;;;5.40;;
65822;SDS011;52585;47.566;19.056;2023-03-20T17:42:23;15.10;;;5.60;;
65822;SDS011;52585;47.566;19.056;2023-03-20T17:44:58;10.80;;;5.50;;
65822;SDS011;52585;47.566;19.056;2023-03-20T17:47:28;9.60;;;5.00;;